Time;durP1;ratioP1;P1;durP2;ratioP2;P2;SDS_P1;SDS_P2;PMS_P1;PMS_P2;Temp;Humidity;BMP_temperature;BMP_pressure;BME280_temperature;BME280_humidity;BME280_pressure;Samples;Min_cycle;Max_cycle;Signal;HPM_P1;HPM_P2
2023/02/14 00:01:46;;;;;;;11.47;5.67;;;4.80;99.90;;;;;;4991152;28;20447;-71
2023/02/14 00:04:12;;;;;;;11.00;5.90;;;4.80;99.90;;;;;;4992319;28;20948;-71
2023/02/14 00:06:38;;;;;;;6.93;5.00;;;4.90;99.90;;;;;;4992430;28;20957;-71
2023/02/14 00:09:10;;;;;;;5.80;4.73;;;4.80;99.90;;;;;;4992379;28;20432;-71
2023/02/14 00:11:36;;;;;;;6.20;5.23;;;4.70;99.90;;;;;;4992316;28;20435;-71
2023/02/14 00:16:46;;;;;;;7.90;6.23;;;4.70;99.90;;;;;;5006554;28;20583;-71
2023/02/14 00:19:13;;;;;;;9.10;5.80;;;4.60;99.90;;;;;;4996022;28;20953;-71
2023/02/14 00:21:39;;;;;;;9.17;6.47;;;4.60;99.90;;;;;;4992199;28;20189;-71
2023/02/14 00:24:12;;;;;;;7.40;4.63;;;4.60;99.90;;;;;;4992267;28;20408;-71
2023/02/14 00:26:38;;;;;;;9.07;6.50;;;4.60;99.90;;;;;;5001454;28;20415;-71
2023/02/14 00:29:08;;;;;;;8.20;5.50;;;4.60;99.90;;;;;;5011937;28;20411;-71
2023/02/14 00:31:36;;;;;;;10.03;5.90;;;4.60;99.90;;;;;;5011776;28;20439;-71
2023/02/14 00:34:02;;;;;;;9.67;5.53;;;4.60;99.90;;;;;;5012829;28;20465;-71
2023/02/14 00:36:27;;;;;;;7.53;5.90;;;4.60;99.90;;;;;;5022808;28;20755;-71
2023/02/14 00:38:53;;;;;;;11.33;6.00;;;4.60;99.90;;;;;;5011619;28;20411;-71
2023/02/14 00:41:18;;;;;;;9.63;6.13;;;4.60;99.90;;;;;;5011737;28;20191;-70
2023/02/14 00:43:49;;;;;;;15.00;6.93;;;4.60;99.90;;;;;;5011692;28;20198;-71
2023/02/14 00:46:15;;;;;;;8.60;5.53;;;4.60;99.90;;;;;;4996758;28;20264;-71
2023/02/14 00:48:41;;;;;;;8.13;5.43;;;4.60;99.90;;;;;;4991960;28;20412;-71
2023/02/14 00:51:08;;;;;;;8.40;6.00;;;4.50;99.90;;;;;;4992168;28;20518;-71
2023/02/14 00:53:33;;;;;;;9.40;4.90;;;4.50;99.90;;;;;;4993199;28;20200;-71
2023/02/14 00:55:59;;;;;;;7.90;5.40;;;4.50;99.90;;;;;;4994903;28;20423;-71
2023/02/14 00:58:24;;;;;;;12.80;6.97;;;4.50;99.90;;;;;;4995470;28;20169;-71
2023/02/14 01:00:51;;;;;;;7.03;5.97;;;4.40;99.90;;;;;;4995325;28;20271;-71
2023/02/14 01:03:16;;;;;;;10.63;6.50;;;4.50;99.90;;;;;;5000623;28;20207;-71
2023/02/14 01:05:42;;;;;;;12.17;6.50;;;4.40;99.90;;;;;;4995226;28;20988;-71
2023/02/14 01:08:07;;;;;;;5.60;4.70;;;4.40;99.90;;;;;;4995402;28;20574;-71
2023/02/14 01:10:35;;;;;;;10.10;6.30;;;4.40;99.90;;;;;;4995410;28;20189;-71
2023/02/14 01:13:01;;;;;;;10.40;5.70;;;4.40;99.90;;;;;;4997718;28;20527;-71
2023/02/14 01:15:27;;;;;;;9.73;5.13;;;4.50;99.90;;;;;;4994950;28;20506;-71
2023/02/14 01:17:52;;;;;;;8.70;5.80;;;4.50;99.90;;;;;;4995308;28;20198;-71
2023/02/14 01:20:18;;;;;;;8.73;6.03;;;4.40;99.90;;;;;;4995351;28;20949;-71
2023/02/14 01:22:43;;;;;;;9.43;6.03;;;4.40;99.90;;;;;;4995230;28;20203;-71
2023/02/14 01:25:09;;;;;;;8.17;5.23;;;4.40;99.90;;;;;;4994913;28;20204;-71
2023/02/14 01:27:35;;;;;;;9.03;5.53;;;4.50;99.90;;;;;;4995207;28;20196;-71
2023/02/14 01:30:01;;;;;;;9.70;5.63;;;4.50;99.90;;;;;;4994751;28;20177;-71
2023/02/14 01:32:30;;;;;;;10.93;6.00;;;4.50;99.90;;;;;;5014483;28;20435;-71
2023/02/14 01:34:56;;;;;;;8.40;5.60;;;4.50;99.90;;;;;;5014363;28;20658;-71
2023/02/14 01:37:21;;;;;;;10.33;6.37;;;4.50;99.90;;;;;;5014492;28;20434;-71
2023/02/14 01:39:47;;;;;;;7.93;5.37;;;4.50;99.90;;;;;;5011768;28;20173;-71
2023/02/14 01:42:13;;;;;;;8.27;5.30;;;4.50;99.90;;;;;;4994898;28;20191;-71
2023/02/14 01:44:38;;;;;;;9.50;5.83;;;4.50;99.90;;;;;;4994467;28;20172;-71
2023/02/14 01:47:08;;;;;;;8.47;4.97;;;4.40;99.90;;;;;;5021396;28;20173;-71
2023/02/14 01:49:38;;;;;;;6.00;5.20;;;4.40;99.90;;;;;;5000251;28;20176;-70
2023/02/14 01:52:22;;;;;;;7.43;4.73;;;4.40;99.90;;;;;;4994638;28;20424;-71
2023/02/14 01:54:53;;;;;;;6.87;5.47;;;4.30;99.90;;;;;;4994273;28;20443;-71
2023/02/14 01:57:21;;;;;;;8.37;4.83;;;4.30;99.90;;;;;;4994623;28;20460;-71
2023/02/14 02:00:55;;;;;;;8.07;6.20;;;4.20;99.90;;;;;;4994520;28;20502;-71
2023/02/14 02:02:45;;;;;;;5.83;4.70;;;4.20;99.90;;;;;;4994256;28;20415;-71
2023/02/14 02:05:11;;;;;;;6.97;5.00;;;4.10;99.90;;;;;;4998942;28;20415;-71
2023/02/14 02:07:37;;;;;;;7.30;4.27;;;4.00;99.90;;;;;;5014045;28;20464;-71
2023/02/14 02:10:05;;;;;;;9.53;5.63;;;4.00;99.90;;;;;;5013819;28;20815;-71
2023/02/14 02:12:34;;;;;;;5.47;4.00;;;3.90;99.90;;;;;;5012616;28;20419;-71
2023/02/14 02:15:01;;;;;;;9.43;6.00;;;3.90;99.90;;;;;;5006197;28;21024;-71
2023/02/14 02:17:50;;;;;;;7.60;5.80;;;3.90;99.90;;;;;;5005008;28;20447;-71
2023/02/14 02:20:37;;;;;;;12.20;5.67;;;3.80;99.90;;;;;;5013748;28;20764;-71
2023/02/14 02:23:08;;;;;;;8.10;5.80;;;3.70;99.90;;;;;;5013751;28;20399;-71
2023/02/14 02:25:54;;;;;;;11.90;6.53;;;3.60;99.90;;;;;;5007585;28;20507;-71
2023/02/14 02:28:47;;;;;;;7.87;5.60;;;3.60;99.90;;;;;;4992819;28;20507;-71
2023/02/14 02:31:53;;;;;;;9.87;5.40;;;3.60;99.90;;;;;;4994021;28;20776;-71
2023/02/14 02:34:32;;;;;;;10.33;5.37;;;3.60;99.90;;;;;;5000650;28;20944;-71
2023/02/14 02:37:07;;;;;;;13.97;6.37;;;3.50;99.90;;;;;;5013506;28;20399;-69
2023/02/14 02:40:05;;;;;;;6.70;5.70;;;3.50;99.90;;;;;;5013432;28;20761;-71
2023/02/14 02:43:02;;;;;;;11.50;5.73;;;3.40;99.90;;;;;;5013278;28;20565;-69
2023/02/14 02:48:58;;;;;;;10.77;6.70;;;3.30;99.90;;;;;;4994140;28;20765;-69
2023/02/14 02:54:36;;;;;;;7.80;5.63;;;3.20;99.90;;;;;;4993217;28;20419;-69
2023/02/14 02:57:06;;;;;;;12.37;6.07;;;3.20;99.90;;;;;;4997692;28;20422;-72
2023/02/14 02:59:39;;;;;;;6.50;4.70;;;3.10;99.90;;;;;;5018638;28;20427;-70
2023/02/14 03:02:16;;;;;;;9.00;6.20;;;3.20;99.90;;;;;;4993515;28;20855;-70
2023/02/14 03:04:53;;;;;;;12.80;6.97;;;3.20;99.90;;;;;;4991871;28;20458;-70
2023/02/14 03:07:35;;;;;;;6.27;5.10;;;3.10;99.90;;;;;;4993428;28;20431;-71
2023/02/14 03:10:22;;;;;;;7.30;5.17;;;3.10;99.90;;;;;;4993317;28;20424;-71
2023/02/14 03:13:29;;;;;;;8.20;6.37;;;3.10;99.90;;;;;;4992965;28;20458;-70
2023/02/14 03:16:13;;;;;;;5.40;4.40;;;3.10;99.90;;;;;;4991326;28;20404;-71
2023/02/14 03:18:43;;;;;;;9.27;6.60;;;3.00;99.90;;;;;;4993112;28;20821;-69
2023/02/14 03:21:42;;;;;;;9.70;5.70;;;3.00;99.90;;;;;;4993008;28;20423;-71
2023/02/14 03:24:27;;;;;;;14.73;6.83;;;3.00;99.90;;;;;;4992990;28;20455;-70
2023/02/14 03:27:04;;;;;;;12.83;7.53;;;2.90;99.90;;;;;;4993141;28;20400;-70
2023/02/14 03:29:54;;;;;;;9.43;5.37;;;2.90;99.90;;;;;;4993244;28;20499;-70
2023/02/14 03:32:31;;;;;;;16.27;9.30;;;2.80;99.90;;;;;;4991916;28;20511;-69
2023/02/14 03:35:16;;;;;;;13.57;8.43;;;2.80;99.90;;;;;;4992412;28;20418;-70
2023/02/14 03:38:15;;;;;;;16.17;7.40;;;2.90;99.90;;;;;;4992974;28;20762;-70
2023/02/14 03:40:48;;;;;;;8.63;5.90;;;2.90;99.90;;;;;;4992830;28;20489;-71
2023/02/14 03:43:42;;;;;;;10.93;6.30;;;2.80;99.90;;;;;;4992788;28;20458;-71
2023/02/14 03:46:28;;;;;;;8.83;6.10;;;2.80;99.90;;;;;;4991599;28;20941;-71
2023/02/14 03:48:57;;;;;;;11.67;6.80;;;2.80;99.90;;;;;;4992721;28;20411;-71
2023/02/14 03:51:23;;;;;;;9.53;5.63;;;2.80;99.90;;;;;;4992550;28;20416;-70
2023/02/14 03:53:54;;;;;;;12.33;7.37;;;2.70;99.90;;;;;;4992985;28;20952;-71
2023/02/14 03:56:40;;;;;;;11.33;5.67;;;2.70;99.90;;;;;;4992268;28;20419;-71
2023/02/14 03:59:13;;;;;;;8.80;5.67;;;2.60;99.90;;;;;;4992635;28;20731;-71
2023/02/14 04:01:51;;;;;;;9.40;7.63;;;2.60;99.90;;;;;;4991282;28;20478;-69
2023/02/14 04:04:21;;;;;;;10.10;6.57;;;2.60;99.90;;;;;;4997176;28;20447;-70
2023/02/14 04:06:47;;;;;;;24.60;12.40;;;2.50;99.90;;;;;;5010352;28;20493;-70
2023/02/14 04:09:12;;;;;;;9.77;6.03;;;2.60;99.90;;;;;;5031781;28;20560;-70
2023/02/14 04:11:38;;;;;;;16.07;8.80;;;2.60;99.90;;;;;;5031657;28;20191;-69
2023/02/14 04:14:04;;;;;;;11.03;7.50;;;2.60;99.90;;;;;;5031080;28;20621;-71
2023/02/14 04:19:21;;;;;;;11.73;7.60;;;2.60;99.90;;;;;;4994278;28;20220;-71
2023/02/14 04:19:22;;;;;;;9.40;6.60;;;2.50;99.90;;;;;;4992206;28;20404;-71
2023/02/14 04:21:48;;;;;;;8.33;7.37;;;2.50;99.90;;;;;;4992360;28;20427;-71
2023/02/14 04:24:14;;;;;;;9.73;6.60;;;2.50;99.90;;;;;;4992027;28;20447;-70
2023/02/14 04:26:52;;;;;;;9.93;6.37;;;2.50;99.90;;;;;;4992384;28;20400;-71
2023/02/14 04:29:21;;;;;;;11.73;6.53;;;2.50;99.90;;;;;;4994884;28;20236;-70
2023/02/14 04:31:47;;;;;;;12.60;8.07;;;2.50;99.90;;;;;;4996353;28;20420;-70
2023/02/14 04:34:13;;;;;;;11.83;8.00;;;2.50;99.90;;;;;;4996133;28;20754;-70
2023/02/14 04:36:39;;;;;;;11.53;7.90;;;2.50;99.90;;;;;;4996279;28;20407;-71
2023/02/14 04:39:05;;;;;;;13.00;6.87;;;2.40;99.90;;;;;;4996110;28;20487;-71
2023/02/14 04:41:30;;;;;;;14.70;6.83;;;2.40;99.90;;;;;;4996092;28;20196;-70
2023/02/14 04:43:55;;;;;;;11.53;6.80;;;2.40;99.90;;;;;;4999502;28;20678;-70
2023/02/14 04:46:21;;;;;;;9.77;6.70;;;2.40;99.90;;;;;;4999716;28;20222;-70
2023/02/14 04:48:46;;;;;;;11.17;7.20;;;2.50;99.90;;;;;;4996184;28;20215;-70
2023/02/14 04:51:12;;;;;;;7.80;6.30;;;2.50;99.90;;;;;;4995915;28;20185;-71
2023/02/14 04:53:39;;;;;;;12.47;6.93;;;2.50;99.90;;;;;;4996926;28;20693;-71
2023/02/14 04:56:06;;;;;;;16.60;8.20;;;2.60;99.90;;;;;;4995707;28;20165;-71
2023/02/14 04:58:32;;;;;;;12.57;7.40;;;2.60;99.90;;;;;;4995665;28;20435;-70
2023/02/14 05:00:57;;;;;;;14.87;7.37;;;2.60;99.90;;;;;;4995397;28;20479;-71
2023/02/14 05:03:23;;;;;;;10.97;6.73;;;2.60;99.90;;;;;;4995561;28;20176;-71
2023/02/14 05:05:48;;;;;;;10.53;7.33;;;2.50;99.90;;;;;;4995320;28;20169;-71
2023/02/14 05:08:14;;;;;;;10.93;6.93;;;2.50;99.90;;;;;;4995309;28;20298;-71
2023/02/14 05:10:40;;;;;;;13.87;8.13;;;2.50;99.90;;;;;;4995431;28;20184;-70
2023/02/14 05:13:05;;;;;;;11.80;6.90;;;2.40;99.90;;;;;;4995457;28;20648;-70
2023/02/14 05:15:31;;;;;;;9.63;7.23;;;2.40;99.90;;;;;;5008797;28;20231;-69
2023/02/14 05:18:00;;;;;;;9.97;6.57;;;2.40;99.90;;;;;;5022093;28;20186;-69
2023/02/14 05:20:27;;;;;;;12.83;8.40;;;2.30;99.90;;;;;;5034649;28;20714;-71
2023/02/14 05:22:52;;;;;;;14.10;7.33;;;2.40;99.90;;;;;;5033403;28;20867;-71
2023/02/14 05:25:18;;;;;;;8.93;6.07;;;2.50;99.90;;;;;;5022408;28;20503;-70
2023/02/14 05:27:43;;;;;;;12.83;8.37;;;2.50;99.90;;;;;;5011253;28;20172;-69
2023/02/14 05:30:10;;;;;;;10.20;6.87;;;2.40;99.90;;;;;;5014685;28;20172;-70
2023/02/14 05:32:35;;;;;;;9.73;7.30;;;2.40;99.90;;;;;;5014779;28;20168;-69
2023/02/14 05:35:01;;;;;;;10.17;6.60;;;2.30;99.90;;;;;;5014411;28;20410;-71
2023/02/14 05:37:26;;;;;;;14.53;8.43;;;2.20;99.90;;;;;;5014659;28;20267;-71
2023/02/14 05:39:52;;;;;;;12.20;8.83;;;2.20;99.90;;;;;;5014140;28;20598;-70
2023/02/14 05:42:17;;;;;;;15.57;7.10;;;2.10;99.90;;;;;;5014459;28;20202;-71
2023/02/14 05:44:43;;;;;;;14.43;7.87;;;2.20;99.90;;;;;;5000619;28;20193;-71
2023/02/14 05:47:08;;;;;;;16.73;8.63;;;2.10;99.90;;;;;;5014511;28;20168;-71
2023/02/14 05:49:34;;;;;;;11.17;7.53;;;2.10;99.90;;;;;;5013285;28;20172;-70
2023/02/14 05:52:00;;;;;;;10.40;7.23;;;2.10;99.90;;;;;;5014424;28;20185;-70
2023/02/14 05:54:26;;;;;;;13.33;9.03;;;2.20;99.90;;;;;;5013001;28;20500;-70
2023/02/14 05:56:51;;;;;;;12.30;7.53;;;2.20;99.90;;;;;;5014451;28;20168;-70
2023/02/14 05:59:17;;;;;;;50.97;24.53;;;2.10;99.90;;;;;;5014999;28;20263;-70
2023/02/14 06:01:42;;;;;;;23.03;11.83;;;2.10;99.90;;;;;;5014051;28;20198;-70
2023/02/14 06:04:08;;;;;;;12.30;8.87;;;2.00;99.90;;;;;;5014084;28;20273;-71
2023/02/14 06:06:33;;;;;;;12.23;7.00;;;2.00;99.90;;;;;;5012564;28;20731;-71
2023/02/14 06:08:59;;;;;;;17.10;7.70;;;2.00;99.90;;;;;;5013860;28;20246;-71
2023/02/14 06:11:24;;;;;;;14.13;8.70;;;2.00;99.90;;;;;;5002881;28;20220;-71
2023/02/14 06:13:50;;;;;;;19.03;10.00;;;2.00;99.90;;;;;;4994277;28;20176;-71
2023/02/14 06:16:15;;;;;;;13.27;8.43;;;2.00;99.90;;;;;;4993985;28;20179;-71
2023/02/14 06:18:41;;;;;;;15.60;8.63;;;2.00;99.90;;;;;;5006020;28;20185;-70
2023/02/14 06:21:06;;;;;;;17.73;9.40;;;2.00;99.90;;;;;;5013829;28;20199;-70
2023/02/14 06:23:32;;;;;;;13.30;8.47;;;1.90;99.90;;;;;;5013359;28;20175;-70
2023/02/14 06:25:57;;;;;;;14.53;8.50;;;1.90;99.90;;;;;;5011101;28;20222;-71
2023/02/14 06:28:23;;;;;;;21.13;11.53;;;1.90;99.90;;;;;;5017983;28;20659;-69
2023/02/14 06:30:48;;;;;;;14.30;9.17;;;1.90;99.90;;;;;;5015768;28;20608;-70
2023/02/14 06:33:14;;;;;;;15.90;8.93;;;1.90;99.90;;;;;;5013634;28;20642;-70
2023/02/14 06:35:39;;;;;;;18.17;8.73;;;1.90;99.90;;;;;;5013167;28;20626;-71
2023/02/14 06:38:05;;;;;;;19.60;9.67;;;2.00;99.90;;;;;;5013659;28;20172;-71
2023/02/14 06:40:30;;;;;;;16.00;10.90;;;2.00;99.90;;;;;;5028535;28;20237;-71
2023/02/14 06:42:56;;;;;;;15.67;9.40;;;2.10;99.90;;;;;;5013486;28;20172;-70
2023/02/14 06:45:22;;;;;;;19.07;9.83;;;2.10;99.90;;;;;;5005461;28;20203;-71
2023/02/14 06:47:47;;;;;;;14.67;9.10;;;2.20;99.90;;;;;;4993867;28;20215;-71
2023/02/14 06:50:13;;;;;;;20.13;10.10;;;2.20;99.90;;;;;;4993623;28;20172;-71
2023/02/14 06:52:38;;;;;;;17.67;10.07;;;2.30;99.90;;;;;;4993019;28;20642;-71
2023/02/14 06:55:04;;;;;;;22.80;10.70;;;2.30;99.90;;;;;;4993317;28;20642;-71
2023/02/14 06:57:30;;;;;;;14.37;9.30;;;2.20;99.90;;;;;;5010980;28;20592;-72
2023/02/14 06:59:55;;;;;;;13.77;9.83;;;2.20;99.90;;;;;;5011795;28;20247;-70
2023/02/14 07:02:21;;;;;;;20.83;9.53;;;2.20;99.90;;;;;;5012876;28;20212;-71
2023/02/14 07:04:46;;;;;;;17.10;10.30;;;2.20;99.90;;;;;;5009933;28;20640;-71
2023/02/14 07:07:12;;;;;;;18.90;9.40;;;2.20;99.90;;;;;;4992097;28;20223;-71
2023/02/14 07:09:37;;;;;;;18.80;10.10;;;2.30;99.90;;;;;;4993265;28;20256;-70
2023/02/14 07:12:03;;;;;;;19.93;9.73;;;2.50;99.90;;;;;;4993374;28;20215;-71
2023/02/14 07:14:28;;;;;;;23.03;10.07;;;2.50;99.90;;;;;;4991731;28;20519;-71
2023/02/14 07:16:54;;;;;;;16.67;11.10;;;2.60;99.90;;;;;;4993423;28;20169;-71
2023/02/14 07:19:20;;;;;;;14.37;10.30;;;2.70;99.90;;;;;;4993204;28;20224;-71
2023/02/14 07:21:45;;;;;;;16.83;11.27;;;2.80;99.90;;;;;;4993302;28;20612;-71
2023/02/14 07:24:11;;;;;;;17.63;10.40;;;2.80;99.90;;;;;;4993273;28;20196;-71
2023/02/14 07:26:36;;;;;;;18.57;10.57;;;2.70;99.90;;;;;;4992632;28;20177;-71
2023/02/14 07:29:02;;;;;;;18.93;10.80;;;2.80;99.90;;;;;;4992859;28;20168;-71
2023/02/14 07:31:27;;;;;;;16.97;10.70;;;2.80;99.90;;;;;;4992950;28;20646;-71
2023/02/14 07:33:53;;;;;;;17.60;9.47;;;2.90;99.90;;;;;;4999987;28;20218;-71
2023/02/14 07:36:18;;;;;;;17.80;10.60;;;3.00;99.90;;;;;;5012174;28;20171;-71
2023/02/14 07:38:44;;;;;;;18.07;11.27;;;3.00;99.90;;;;;;5013718;28;20180;-71
2023/02/14 07:41:09;;;;;;;14.77;9.33;;;3.20;99.90;;;;;;5029224;28;20202;-71
2023/02/14 07:43:35;;;;;;;18.07;10.37;;;3.20;99.90;;;;;;5012097;28;20184;-71
2023/02/14 07:46:02;;;;;;;20.90;11.23;;;3.20;99.90;;;;;;5012002;28;20172;-71
2023/02/14 07:48:27;;;;;;;23.27;11.73;;;3.40;99.90;;;;;;5012456;28;20677;-70
2023/02/14 07:50:56;;;;;;;26.27;13.50;;;3.50;99.90;;;;;;5012359;28;20540;-70
2023/02/14 07:53:22;;;;;;;24.87;13.00;;;3.50;99.90;;;;;;5012574;28;20160;-71
2023/02/14 07:55:49;;;;;;;24.20;13.67;;;3.60;99.90;;;;;;5012213;28;20414;-71
2023/02/14 07:58:15;;;;;;;30.87;11.93;;;3.70;99.90;;;;;;5012359;28;20904;-71
2023/02/14 08:00:40;;;;;;;20.53;12.67;;;3.70;99.90;;;;;;5011109;28;20439;-71
2023/02/14 08:03:06;;;;;;;23.27;12.60;;;3.90;99.90;;;;;;5012024;28;20179;-72
2023/02/14 08:05:31;;;;;;;21.30;12.53;;;3.90;99.90;;;;;;5011863;28;20204;-71
2023/02/14 08:07:57;;;;;;;22.07;13.10;;;4.10;99.90;;;;;;5012302;28;20172;-70
2023/02/14 08:10:22;;;;;;;20.80;12.60;;;4.30;99.90;;;;;;5008030;28;20238;-70
2023/02/14 08:13:00;;;;;;;26.70;14.83;;;4.40;99.90;;;;;;5011059;28;20806;-71
2023/02/14 08:18:17;;;;;;;33.83;17.07;;;5.30;99.90;;;;;;4992690;28;20491;-71
2023/02/14 08:20:43;;;;;;;36.10;19.10;;;6.80;99.90;;;;;;4992173;28;20838;-68
2023/02/14 08:23:08;;;;;;;39.27;21.37;;;8.30;99.90;;;;;;5001114;28;20415;-68
2023/02/14 08:25:34;;;;;;;36.37;18.63;;;9.90;99.90;;;;;;4991927;28;20510;-69
2023/02/14 08:28:01;;;;;;;23.87;15.37;;;11.20;99.90;;;;;;4992392;28;20165;-70
2023/02/14 08:30:27;;;;;;;19.00;12.70;;;12.20;99.90;;;;;;4992272;28;20236;-71
2023/02/14 08:32:52;;;;;;;14.63;11.47;;;13.10;99.90;;;;;;5002031;28;20411;-69
2023/02/14 08:35:18;;;;;;;19.83;11.23;;;14.00;99.90;;;;;;5011492;28;20178;-69
2023/02/14 08:37:43;;;;;;;15.00;11.20;;;14.80;99.90;;;;;;5010647;28;20574;-70
2023/02/14 08:40:09;;;;;;;15.20;9.70;;;15.80;99.90;;;;;;5011309;28;20557;-69
2023/02/14 08:42:35;;;;;;;18.97;11.87;;;16.60;99.90;;;;;;5009554;28;20634;-69
2023/02/14 08:45:00;;;;;;;18.60;12.10;;;17.10;95.10;;;;;;5006796;28;20192;-69
2023/02/14 08:47:26;;;;;;;17.47;11.33;;;17.50;90.30;;;;;;5000798;28;20180;-71
2023/02/14 08:49:51;;;;;;;18.53;11.43;;;18.00;85.20;;;;;;5020391;28;20175;-69
2023/02/14 08:52:17;;;;;;;19.60;12.97;;;18.70;77.10;;;;;;5011700;28;20241;-69
2023/02/14 08:54:42;;;;;;;17.10;11.37;;;19.40;74.20;;;;;;5011393;28;20171;-70
2023/02/14 08:57:08;;;;;;;16.13;11.03;;;20.10;68.40;;;;;;5011771;28;20582;-71
2023/02/14 08:59:33;;;;;;;15.70;10.97;;;21.10;66.40;;;;;;5011721;28;20279;-69
2023/02/14 09:01:59;;;;;;;16.53;11.87;;;21.50;59.90;;;;;;5001195;28;20205;-70
2023/02/14 09:04:24;;;;;;;14.03;10.17;;;22.10;58.80;;;;;;4991576;28;20223;-70
2023/02/14 09:06:50;;;;;;;20.07;11.87;;;22.60;56.60;;;;;;4992050;28;20169;-71
2023/02/14 09:09:16;;;;;;;15.87;9.83;;;22.50;54.00;;;;;;4992065;28;20187;-70
2023/02/14 09:11:42;;;;;;;15.80;10.57;;;22.80;53.70;;;;;;4991883;28;20186;-70
2023/02/14 09:14:08;;;;;;;19.03;11.77;;;22.80;52.30;;;;;;4992423;28;20415;-70
2023/02/14 09:16:34;;;;;;;14.30;11.30;;;23.60;52.80;;;;;;4995282;28;20416;-70
2023/02/14 09:18:59;;;;;;;13.90;10.67;;;24.20;51.20;;;;;;5004222;28;20177;-72
2023/02/14 09:21:26;;;;;;;13.97;11.40;;;24.20;49.30;;;;;;4995343;28;20436;-71
2023/02/14 09:23:52;;;;;;;15.50;12.60;;;23.70;48.50;;;;;;4993973;28;20291;-70
2023/02/14 09:26:18;;;;;;;18.27;12.27;;;23.20;48.60;;;;;;4995051;28;20960;-70
2023/02/14 09:28:44;;;;;;;14.30;10.37;;;22.50;48.40;;;;;;4996389;28;20550;-70
2023/02/14 09:31:11;;;;;;;16.80;11.77;;;22.40;49.60;;;;;;4995147;28;20420;-70
2023/02/14 09:33:38;;;;;;;12.70;10.70;;;22.60;50.00;;;;;;4995276;28;20401;-70
2023/02/14 09:38:47;;;;;;;13.77;10.53;;;23.70;49.50;;;;;;5002382;28;20453;-71
2023/02/14 09:41:44;;;;;;;13.10;11.03;;;24.10;49.20;;;;;;5014494;28;20431;-71
2023/02/14 09:44:40;;;;;;;13.80;11.47;;;24.50;48.10;;;;;;5014401;28;20287;-74
2023/02/14 09:47:21;;;;;;;15.60;12.33;;;25.10;48.30;;;;;;4995471;28;20400;-72
2023/02/14 09:49:49;;;;;;;18.27;12.03;;;25.50;46.80;;;;;;4993731;28;20439;-71
2023/02/14 09:52:18;;;;;;;14.47;11.60;;;25.60;45.80;;;;;;4993458;28;20424;-71
2023/02/14 09:54:49;;;;;;;18.27;12.67;;;25.60;45.30;;;;;;5023514;28;20441;-72
2023/02/14 09:57:21;;;;;;;13.00;11.17;;;25.20;45.10;;;;;;5013197;28;20458;-71
2023/02/14 09:59:58;;;;;;;16.33;11.73;;;25.10;45.30;;;;;;5014313;28;20743;-70
2023/02/14 10:02:57;;;;;;;14.50;11.70;;;25.40;45.30;;;;;;5013909;28;20419;-71
2023/02/14 10:05:36;;;;;;;14.00;10.93;;;25.60;45.20;;;;;;5013061;28;20516;-71
2023/02/14 10:08:30;;;;;;;18.83;10.50;;;26.00;45.00;;;;;;5014068;28;20395;-71
2023/02/14 10:11:07;;;;;;;18.80;12.20;;;26.40;44.30;;;;;;5014126;28;20434;-71
2023/02/14 10:13:47;;;;;;;17.70;12.57;;;26.10;43.50;;;;;;5014354;28;20403;-71
2023/02/14 10:16:25;;;;;;;15.67;11.67;;;26.40;43.50;;;;;;5013529;28;20426;-71
2023/02/14 10:19:01;;;;;;;17.13;13.63;;;26.60;43.60;;;;;;5013961;28;20387;-70
2023/02/14 10:21:35;;;;;;;15.37;13.40;;;26.60;43.10;;;;;;5005126;28;20431;-72
2023/02/14 10:24:14;;;;;;;17.97;13.70;;;26.50;42.90;;;;;;4993991;28;20459;-73
2023/02/14 10:26:40;;;;;;;18.63;13.10;;;26.50;43.50;;;;;;5008229;28;20446;-71
2023/02/14 10:29:12;;;;;;;18.30;11.83;;;27.10;43.40;;;;;;4994044;28;20400;-70
2023/02/14 10:31:54;;;;;;;20.77;12.37;;;27.70;43.10;;;;;;4994184;28;20181;-71
2023/02/14 10:34:29;;;;;;;14.87;11.93;;;28.60;42.30;;;;;;4993695;28;20404;-70
2023/02/14 10:37:16;;;;;;;15.63;12.10;;;29.80;42.00;;;;;;4994010;28;20415;-70
2023/02/14 10:40:15;;;;;;;16.93;12.20;;;30.30;40.10;;;;;;4993902;28;20474;-70
2023/02/14 10:42:57;;;;;;;17.87;12.63;;;30.20;39.20;;;;;;4993384;28;20424;-70
2023/02/14 10:45:26;;;;;;;16.40;10.70;;;30.60;39.10;;;;;;5005283;28;20500;-72
2023/02/14 10:48:07;;;;;;;13.37;11.10;;;31.10;39.20;;;;;;4993725;28;20403;-70
2023/02/14 10:50:51;;;;;;;14.97;12.47;;;31.60;38.30;;;;;;4992490;28;20439;-70
2023/02/14 10:53:47;;;;;;;14.37;11.13;;;31.90;37.30;;;;;;4993693;28;20419;-70
2023/02/14 10:56:22;;;;;;;12.07;10.77;;;32.40;36.90;;;;;;4993341;28;20416;-70
2023/02/14 10:58:51;;;;;;;16.57;12.50;;;31.90;36.10;;;;;;4993617;28;20866;-72
2023/02/14 11:01:18;;;;;;;14.37;12.87;;;31.70;35.60;;;;;;4993557;28;20428;-70
2023/02/14 11:04:02;;;;;;;17.63;13.30;;;31.90;35.80;;;;;;4993448;28;20492;-70
2023/02/14 11:06:32;;;;;;;12.73;11.47;;;32.00;35.50;;;;;;5020956;28;20489;-70
2023/02/14 11:08:58;;;;;;;15.00;10.87;;;32.20;35.60;;;;;;5012912;28;20458;-70
2023/02/14 11:11:29;;;;;;;14.90;11.13;;;32.20;35.20;;;;;;5011748;28;21118;-70
2023/02/14 11:13:55;;;;;;;18.63;12.60;;;32.50;35.70;;;;;;5013091;28;20459;-70
2023/02/14 11:16:33;;;;;;;13.50;11.90;;;32.90;35.30;;;;;;5012678;28;20422;-70
2023/02/14 11:19:14;;;;;;;14.80;10.30;;;33.50;34.60;;;;;;5012720;28;20924;-71
2023/02/14 11:21:43;;;;;;;12.93;11.50;;;34.50;34.90;;;;;;5012742;28;20982;-72
2023/02/14 11:24:30;;;;;;;14.00;11.90;;;34.50;32.90;;;;;;5012511;28;20410;-70
2023/02/14 11:26:59;;;;;;;12.20;10.43;;;34.30;32.60;;;;;;5012785;28;20403;-70
2023/02/14 11:29:35;;;;;;;12.23;10.93;;;34.50;32.50;;;;;;5012692;28;20457;-72
2023/02/14 11:32:14;;;;;;;13.10;11.07;;;34.30;32.00;;;;;;5011240;28;20431;-72
2023/02/14 11:34:40;;;;;;;12.40;9.40;;;34.40;32.30;;;;;;5009996;28;20525;-70
2023/02/14 11:37:21;;;;;;;15.83;12.10;;;34.80;32.80;;;;;;5012172;28;20418;-70
2023/02/14 11:39:51;;;;;;;13.47;9.97;;;35.20;32.00;;;;;;5012607;28;20399;-72
2023/02/14 11:42:33;;;;;;;13.13;11.50;;;35.40;31.80;;;;;;5000999;28;20444;-72
2023/02/14 11:44:58;;;;;;;12.57;11.20;;;35.30;31.60;;;;;;4992594;28;20924;-70
2023/02/14 11:47:28;;;;;;;13.77;11.63;;;35.90;31.70;;;;;;4992836;28;20408;-71
2023/02/14 11:49:59;;;;;;;14.20;12.70;;;36.40;31.30;;;;;;4992745;28;20173;-72
2023/02/14 11:52:28;;;;;;;12.17;10.80;;;36.70;31.10;;;;;;4992556;28;20466;-70
2023/02/14 11:54:55;;;;;;;10.87;9.87;;;37.20;30.90;;;;;;4992379;28;20443;-70
2023/02/14 11:57:27;;;;;;;13.57;12.17;;;38.00;30.30;;;;;;4992522;28;20800;-72
2023/02/14 11:59:55;;;;;;;13.00;11.13;;;37.80;29.50;;;;;;4992739;28;20404;-70
2023/02/14 12:02:42;;;;;;;12.33;10.30;;;37.20;29.40;;;;;;4992478;28;20426;-71
2023/02/14 12:05:25;;;;;;;11.03;9.43;;;37.20;29.50;;;;;;5007260;28;20501;-71
2023/02/14 12:07:54;;;;;;;11.43;10.23;;;36.80;30.10;;;;;;5012022;28;20403;-70
2023/02/14 12:10:19;;;;;;;13.93;11.40;;;36.80;29.50;;;;;;5012000;28;20439;-71
2023/02/14 12:13:02;;;;;;;10.23;9.23;;;36.70;29.30;;;;;;5012181;28;20975;-71
2023/02/14 12:15:39;;;;;;;13.50;12.10;;;36.90;29.60;;;;;;5011828;28;20577;-71
2023/02/14 12:18:13;;;;;;;13.07;10.63;;;36.70;29.00;;;;;;5023854;28;20418;-73
2023/02/14 12:20:55;;;;;;;11.10;10.00;;;37.30;29.50;;;;;;4994988;28;20439;-70
2023/02/14 12:23:39;;;;;;;13.63;10.97;;;37.70;29.30;;;;;;4991363;28;20408;-69
2023/02/14 12:29:44;;;;;;;10.97;9.77;;;37.30;28.50;;;;;;5001235;28;20419;-68
2023/02/14 12:32:24;;;;;;;11.10;9.40;;;38.00;29.20;;;;;;4992959;28;20447;-66
2023/02/14 12:34:52;;;;;;;8.80;7.90;;;38.00;28.50;;;;;;5000297;28;20863;-67
2023/02/14 12:37:57;;;;;;;9.13;8.20;;;38.80;29.10;;;;;;4992210;28;20831;-66
2023/02/14 12:40:28;;;;;;;17.90;11.90;;;39.00;28.60;;;;;;4992556;28;20408;-66
2023/02/14 12:43:22;;;;;;;12.73;11.30;;;38.60;27.80;;;;;;4995441;28;20394;-66
2023/02/14 12:46:16;;;;;;;8.97;8.10;;;38.80;28.30;;;;;;4994711;28;20387;-66
2023/02/14 12:49:03;;;;;;;11.43;10.30;;;39.30;28.60;;;;;;4995136;28;20426;-66
2023/02/14 12:51:42;;;;;;;11.10;8.93;;;39.20;28.00;;;;;;4998568;28;20607;-67
2023/02/14 12:54:34;;;;;;;10.03;9.07;;;39.10;28.10;;;;;;4998359;28;20491;-67
2023/02/14 12:57:31;;;;;;;12.10;10.77;;;39.60;28.30;;;;;;5006020;28;20406;-67
2023/02/14 13:00:16;;;;;;;11.00;9.90;;;39.60;27.40;;;;;;4998393;28;20390;-67
2023/02/14 13:02:59;;;;;;;11.13;9.77;;;39.60;27.50;;;;;;4998480;28;20416;-67
2023/02/14 13:05:40;;;;;;;15.00;10.97;;;39.20;27.50;;;;;;4998029;28;20418;-66
2023/02/14 13:08:37;;;;;;;11.57;10.37;;;38.40;27.40;;;;;;4998167;28;20749;-67
2023/02/14 13:11:40;;;;;;;11.00;8.80;;;38.10;27.90;;;;;;4997850;28;20510;-66
2023/02/14 13:14:08;;;;;;;12.50;10.30;;;37.90;27.70;;;;;;4998557;28;20574;-66
2023/02/14 13:16:40;;;;;;;13.40;9.80;;;37.20;27.80;;;;;;4998226;28;20400;-66
2023/02/14 13:19:36;;;;;;;10.60;9.57;;;36.90;28.10;;;;;;4998355;28;20941;-66
2023/02/14 13:22:04;;;;;;;13.43;10.90;;;36.30;28.10;;;;;;4998160;28;20431;-66